Airfield :
LOGIN :

Register | Disclaimer

   EN    FR    IT 

 










Legend :    VFR   Marginal VFR   IFR   Intensive IFR   Very Intensive IFR
Visi :
Ceiling :
>= 8 km
>= 3000ft
5 to 8 km
1000 to 3000 ft
1500m to 5 km
500 to 1000 ft
800 to 1500m
200 to 500 ft
< 800m
< 200 ft
Symbols :   Thunderstorms  Fog  Heavy snow  Heavy precipitations  Wind > 20 kt
SIGMETs :     Misc.  Thunderstorms  Icing  Turbulence  Mountain Waves  Volcanic Ashes






- Airport Elevation : 265 ft


ETSH - Holzdorf AB

CURRENT METAR :
  • 301320Z 25004KT 9999 SCT040 19/09 Q1015 BLACKBLU+BLU+

EXPIRED METARs :
  • 301220Z 25003KT 9999 FEW040 19/10 Q1015 BLACKBLU+BLU+
  • 301120Z 28005KT 9999 FEW030 18/10 Q1016 BLACKBLU+BLU+

TAF TAF ETSH
Valid from the 30 at 14:00 until the 30 at 23:00 UTC


301322Z 3014/3023 VRB03KT 9999 NSW SCT050
TEMPO 3020/3023 VRB01KT 4000 BR SCT300



MET'MAP, your aeronautical weather chart ! - Copyright ORBIFLY December 2007 - Disclaimer

ORBIFLY MET'MAP TEAM :

Programming & Development : Alexandra Zaïnal
Concept & original design : Baudouin d'Aumeries
Assistance for programming : Marc-Olivier Méhu
Technical & hardware support : Manuel Goepfert

Contact : metmap@orbifly.com




SOURCES & CREDITS :

   NOAA